createdAt,value
2023-03-31T00:02:13.217Z,10.90
2023-03-31T00:04:45.890Z,10.85
2023-03-31T00:07:14.958Z,10.84
2023-03-31T00:09:45.938Z,10.79
2023-03-31T00:12:14.132Z,10.78
2023-03-31T00:14:41.053Z,10.73
2023-03-31T00:17:08.202Z,10.65
2023-03-31T00:19:34.535Z,10.69
2023-03-31T00:22:05.215Z,10.70
2023-03-31T00:24:33.081Z,10.70
2023-03-31T00:27:00.540Z,10.68
2023-03-31T00:29:27.008Z,10.69
2023-03-31T00:31:53.899Z,10.66
2023-03-31T00:34:20.398Z,10.71
2023-03-31T00:36:49.635Z,10.68
2023-03-31T00:39:18.509Z,10.72
2023-03-31T00:41:45.349Z,10.72
2023-03-31T00:44:27.186Z,10.68
2023-03-31T00:46:58.755Z,10.67
2023-03-31T00:49:32.184Z,10.65
2023-03-31T00:52:07.391Z,10.61
2023-03-31T00:54:36.401Z,10.76
2023-03-31T00:57:06.634Z,10.75
2023-03-31T00:59:38.472Z,10.78
2023-03-31T01:02:04.945Z,10.73
2023-03-31T01:04:35.218Z,10.69
2023-03-31T01:07:16.733Z,10.68
2023-03-31T01:09:47.158Z,10.70
2023-03-31T01:12:16.898Z,10.66
2023-03-31T01:14:43.709Z,10.62
2023-03-31T01:17:10.525Z,10.63
2023-03-31T01:19:52.815Z,10.63
2023-03-31T01:22:46.032Z,10.57
2023-03-31T01:25:55.301Z,10.53
2023-03-31T01:28:36.891Z,10.49
2023-03-31T01:31:13.665Z,10.40
2023-03-31T01:34:01.268Z,10.37
2023-03-31T01:37:06.533Z,10.27
2023-03-31T01:39:46.091Z,10.29
2023-03-31T01:42:28.556Z,10.33
2023-03-31T01:45:12.245Z,10.31
2023-03-31T01:47:46.303Z,10.32
2023-03-31T01:50:28.534Z,10.28
2023-03-31T01:53:16.682Z,10.27
2023-03-31T01:55:53.012Z,10.22
2023-03-31T01:58:24.402Z,10.23
2023-03-31T02:01:08.449Z,10.21
2023-03-31T02:03:44.814Z,10.18
2023-03-31T02:06:21.878Z,10.20
2023-03-31T02:08:54.232Z,10.15
2023-03-31T02:11:22.031Z,10.19
2023-03-31T02:13:52.437Z,10.15
2023-03-31T02:16:24.906Z,10.04
2023-03-31T02:19:02.030Z,10.06
2023-03-31T02:21:33.049Z,10.04
2023-03-31T02:24:04.183Z,10.03
2023-03-31T02:26:37.566Z,9.95
2023-03-31T02:29:04.146Z,9.95
2023-03-31T02:31:41.386Z,9.98
2023-03-31T02:34:07.758Z,9.98
2023-03-31T02:36:35.319Z,9.98
2023-03-31T02:39:16.448Z,9.97
2023-03-31T02:41:43.055Z,9.93
2023-03-31T02:44:10.678Z,10.01
2023-03-31T02:46:38.018Z,10.04
2023-03-31T02:49:08.116Z,10.08
2023-03-31T02:51:49.504Z,10.06
2023-03-31T02:54:43.789Z,10.04
2023-03-31T02:57:54.543Z,9.98
2023-03-31T03:00:41.768Z,10.00
2023-03-31T03:03:14.458Z,10.06
2023-03-31T03:05:58.732Z,10.04
2023-03-31T03:09:03.740Z,10.08
2023-03-31T03:11:58.409Z,10.10
2023-03-31T03:14:39.624Z,10.12
2023-03-31T03:17:11.907Z,10.11
2023-03-31T03:19:38.367Z,10.10
2023-03-31T03:22:05.572Z,10.11
2023-03-31T03:24:34.285Z,10.10
2023-03-31T03:27:01.074Z,10.13
2023-03-31T03:29:27.856Z,10.11
2023-03-31T03:31:54.239Z,10.10
2023-03-31T03:34:20.545Z,10.09
2023-03-31T03:36:47.238Z,10.11
2023-03-31T03:39:13.705Z,10.15
2023-03-31T03:41:40.064Z,10.04
2023-03-31T03:44:06.442Z,10.05
2023-03-31T03:46:32.822Z,10.04
2023-03-31T03:48:59.162Z,9.96
2023-03-31T03:51:25.666Z,9.94
2023-03-31T03:53:52.046Z,9.97
2023-03-31T03:56:18.376Z,9.94
2023-03-31T03:58:44.720Z,9.95
2023-03-31T04:01:11.156Z,9.93
2023-03-31T04:03:37.473Z,9.93
2023-03-31T04:06:04.333Z,9.96
2023-03-31T04:08:30.918Z,10.00
2023-03-31T04:10:57.267Z,9.99
2023-03-31T04:13:23.597Z,9.95
2023-03-31T04:15:50.226Z,9.98
2023-03-31T04:18:25.515Z,9.99
2023-03-31T04:21:05.636Z,9.96
2023-03-31T04:23:33.326Z,9.92
2023-03-31T04:26:00.136Z,9.91
2023-03-31T04:28:26.643Z,9.89
2023-03-31T04:30:58.766Z,9.91
2023-03-31T04:33:25.098Z,9.94
2023-03-31T04:35:52.558Z,9.98
2023-03-31T04:38:21.137Z,9.92
2023-03-31T04:40:49.883Z,9.92
2023-03-31T04:43:18.019Z,9.98
2023-03-31T04:45:45.106Z,9.97
2023-03-31T04:48:12.057Z,9.91
2023-03-31T04:50:38.867Z,9.95
2023-03-31T04:53:06.021Z,9.87
2023-03-31T04:55:33.065Z,9.93
2023-03-31T04:57:59.731Z,9.93
2023-03-31T05:00:26.525Z,9.91
2023-03-31T05:02:53.047Z,9.97
2023-03-31T05:05:19.571Z,10.05
2023-03-31T05:07:46.141Z,9.94
2023-03-31T05:10:13.386Z,9.96
2023-03-31T05:12:39.962Z,10.01
2023-03-31T05:15:07.636Z,9.97
2023-03-31T05:17:35.606Z,9.95
2023-03-31T05:20:06.041Z,9.85
2023-03-31T05:22:35.618Z,9.85
2023-03-31T05:25:02.848Z,9.80
2023-03-31T05:27:29.296Z,9.77
2023-03-31T05:29:55.846Z,9.77
2023-03-31T05:32:22.305Z,9.76
2023-03-31T05:34:52.029Z,9.79
2023-03-31T05:37:20.335Z,9.74
2023-03-31T05:39:46.654Z,9.73
2023-03-31T05:42:13.025Z,9.79
2023-03-31T05:44:39.396Z,9.76
2023-03-31T05:47:05.976Z,9.75
2023-03-31T05:49:32.695Z,9.80
2023-03-31T05:51:59.044Z,9.80
2023-03-31T05:54:26.496Z,9.82
2023-03-31T05:56:52.957Z,9.83
2023-03-31T05:59:20.409Z,9.83
2023-03-31T06:01:47.196Z,9.87
2023-03-31T06:04:13.665Z,9.91
2023-03-31T06:06:40.005Z,9.94
2023-03-31T06:09:06.585Z,9.96
2023-03-31T06:11:32.914Z,9.99
2023-03-31T06:13:59.242Z,10.04
2023-03-31T06:16:26.129Z,9.99
2023-03-31T06:18:53.476Z,10.05
2023-03-31T06:21:21.527Z,10.04
2023-03-31T06:23:48.089Z,10.09
2023-03-31T06:26:17.502Z,10.09
2023-03-31T06:28:45.273Z,10.06
2023-03-31T06:31:14.140Z,10.10
2023-03-31T06:33:42.083Z,10.09
2023-03-31T06:36:09.843Z,10.09
2023-03-31T06:38:38.295Z,10.12
2023-03-31T06:41:06.383Z,10.12
2023-03-31T06:43:33.270Z,10.06
2023-03-31T06:45:59.971Z,10.09
2023-03-31T06:48:26.729Z,10.02
2023-03-31T06:50:54.492Z,9.99
2023-03-31T06:53:24.479Z,9.97
2023-03-31T06:55:51.053Z,10.02
2023-03-31T06:58:17.457Z,9.92
2023-03-31T07:00:45.940Z,9.87
2023-03-31T07:03:12.827Z,9.82
2023-03-31T07:05:39.569Z,9.79
2023-03-31T07:08:06.314Z,9.72
2023-03-31T07:10:32.986Z,9.68
2023-03-31T07:12:59.590Z,9.66
2023-03-31T07:15:28.164Z,9.70
2023-03-31T07:18:02.206Z,9.72
2023-03-31T07:20:30.353Z,9.68
2023-03-31T07:22:56.845Z,9.67
2023-03-31T07:25:23.433Z,9.68
2023-03-31T07:27:49.758Z,9.63
2023-03-31T07:30:19.309Z,9.58
2023-03-31T07:32:50.420Z,9.54
2023-03-31T07:35:18.317Z,9.58
2023-03-31T07:37:47.057Z,9.57
2023-03-31T07:40:16.000Z,9.58
2023-03-31T07:42:43.215Z,9.64
2023-03-31T07:45:10.295Z,9.64
2023-03-31T07:47:36.921Z,9.57
2023-03-31T07:50:03.499Z,9.61
2023-03-31T07:52:29.832Z,9.57
2023-03-31T07:54:56.331Z,9.59
2023-03-31T07:57:22.714Z,9.60
2023-03-31T07:59:49.448Z,9.55
2023-03-31T08:02:17.636Z,9.55
2023-03-31T08:04:44.976Z,9.61
2023-03-31T08:07:13.187Z,9.56
2023-03-31T08:09:40.190Z,9.52
2023-03-31T08:12:07.088Z,9.55
2023-03-31T08:14:40.549Z,9.61
2023-03-31T08:17:07.990Z,9.57
2023-03-31T08:19:34.350Z,9.51
2023-03-31T08:22:00.829Z,9.50
2023-03-31T08:24:27.162Z,9.51
2023-03-31T08:26:53.460Z,9.54
2023-03-31T08:29:19.936Z,9.56
2023-03-31T08:31:46.345Z,9.56
2023-03-31T08:34:12.742Z,9.63
2023-03-31T08:36:39.070Z,9.68
2023-03-31T08:39:06.310Z,9.70
2023-03-31T08:41:52.917Z,9.70
2023-03-31T08:44:29.220Z,9.83
2023-03-31T08:46:59.140Z,9.76
2023-03-31T08:49:26.972Z,9.85
2023-03-31T08:51:59.070Z,9.91
2023-03-31T08:54:33.787Z,9.94
2023-03-31T08:57:01.224Z,10.01
2023-03-31T08:59:33.042Z,10.09
2023-03-31T09:02:02.315Z,10.14
2023-03-31T09:04:58.862Z,10.14
2023-03-31T09:07:53.497Z,10.20
2023-03-31T09:10:35.237Z,10.22
2023-03-31T09:13:04.643Z,10.22
2023-03-31T09:15:43.375Z,10.26
2023-03-31T09:18:37.018Z,10.21
2023-03-31T09:21:18.780Z,10.29
2023-03-31T09:24:00.015Z,10.33
2023-03-31T09:26:34.093Z,10.32
2023-03-31T09:29:04.142Z,10.30
2023-03-31T09:31:31.773Z,10.32
2023-03-31T09:34:01.507Z,10.40
2023-03-31T09:36:28.619Z,10.39
2023-03-31T09:38:55.228Z,10.40
2023-03-31T09:41:21.745Z,10.44
2023-03-31T09:43:49.530Z,10.45
2023-03-31T09:46:33.160Z,10.49
2023-03-31T09:49:06.101Z,10.53
2023-03-31T09:51:37.101Z,10.53
2023-03-31T09:54:25.631Z,10.57
2023-03-31T09:56:55.164Z,10.55
2023-03-31T09:59:29.789Z,10.57
2023-03-31T10:02:00.446Z,10.62
2023-03-31T10:04:30.659Z,10.68
2023-03-31T10:06:59.003Z,10.69
2023-03-31T10:09:30.107Z,10.73
2023-03-31T10:12:02.322Z,10.83
2023-03-31T10:14:47.167Z,10.92
2023-03-31T10:17:19.367Z,11.03
2023-03-31T10:19:58.611Z,11.12
2023-03-31T10:22:32.301Z,11.21
2023-03-31T10:25:24.143Z,11.42
2023-03-31T10:27:55.179Z,11.54
2023-03-31T10:30:25.920Z,11.59
2023-03-31T10:32:54.540Z,11.55
2023-03-31T10:35:32.382Z,11.52
2023-03-31T10:38:06.117Z,11.41
2023-03-31T10:40:34.944Z,11.38
2023-03-31T10:43:12.346Z,11.38
2023-03-31T10:45:44.788Z,11.36
2023-03-31T10:48:39.588Z,11.31
2023-03-31T10:51:26.571Z,11.42
2023-03-31T10:53:55.333Z,11.45
2023-03-31T10:56:39.232Z,11.40
2023-03-31T10:59:43.333Z,11.45
2023-03-31T11:02:18.069Z,11.57
2023-03-31T11:05:15.180Z,11.75
2023-03-31T11:07:44.408Z,11.96
2023-03-31T11:10:44.834Z,11.95
2023-03-31T11:13:22.180Z,12.10
2023-03-31T11:16:05.125Z,12.09
2023-03-31T11:18:49.699Z,12.02
2023-03-31T11:21:34.839Z,11.98
2023-03-31T11:24:23.727Z,11.66
2023-03-31T11:27:16.514Z,11.52
2023-03-31T11:29:53.292Z,11.49
2023-03-31T11:32:33.734Z,11.47
2023-03-31T11:35:16.362Z,11.56
2023-03-31T11:38:18.353Z,11.68
2023-03-31T11:41:04.741Z,11.76
2023-03-31T11:43:41.928Z,11.94
2023-03-31T11:46:23.575Z,12.10
2023-03-31T11:49:01.396Z,12.18
2023-03-31T11:51:48.495Z,12.29
2023-03-31T11:54:24.417Z,12.37
2023-03-31T11:56:52.826Z,12.49
2023-03-31T11:59:21.316Z,12.53
2023-03-31T12:02:15.924Z,12.48
2023-03-31T12:04:56.368Z,12.50
2023-03-31T12:07:39.548Z,12.44
2023-03-31T12:10:06.116Z,12.42
2023-03-31T12:12:41.947Z,12.46
2023-03-31T12:15:19.314Z,12.47
2023-03-31T12:17:52.691Z,12.59
2023-03-31T12:20:31.441Z,12.66
2023-03-31T12:23:00.734Z,12.77
2023-03-31T12:25:40.439Z,12.77
2023-03-31T12:28:07.006Z,12.56
2023-03-31T12:30:42.208Z,12.59
2023-03-31T12:33:22.391Z,12.53
2023-03-31T12:36:09.919Z,12.48
2023-03-31T12:38:41.893Z,12.51
2023-03-31T12:41:08.277Z,12.52
2023-03-31T12:44:12.203Z,12.48
2023-03-31T12:47:00.423Z,12.43
2023-03-31T12:49:47.156Z,12.45
2023-03-31T12:52:42.888Z,12.52
2023-03-31T12:55:38.244Z,12.60
2023-03-31T12:58:34.026Z,12.58
2023-03-31T13:01:14.648Z,12.62
2023-03-31T13:04:09.055Z,12.67
2023-03-31T13:06:38.564Z,12.72
2023-03-31T13:09:14.080Z,12.86
2023-03-31T13:11:44.791Z,12.96
2023-03-31T13:14:23.510Z,13.04
2023-03-31T13:16:54.189Z,13.10
2023-03-31T13:19:32.171Z,13.12
2023-03-31T13:22:01.228Z,13.13
2023-03-31T13:24:30.004Z,13.24
2023-03-31T13:26:59.224Z,13.24
2023-03-31T13:29:39.785Z,13.21
2023-03-31T13:32:17.361Z,13.14
2023-03-31T13:35:06.878Z,13.16
2023-03-31T13:37:45.644Z,13.10
2023-03-31T13:40:30.752Z,13.13
2023-03-31T13:43:18.633Z,13.18
2023-03-31T13:46:06.495Z,13.18
2023-03-31T13:48:42.144Z,13.17
2023-03-31T13:51:14.684Z,13.24
2023-03-31T13:53:54.463Z,13.37
2023-03-31T13:56:33.928Z,13.50
2023-03-31T13:59:15.829Z,13.57
2023-03-31T14:01:59.689Z,13.61
2023-03-31T14:04:48.200Z,13.46
2023-03-31T14:07:50.289Z,13.50
2023-03-31T14:10:33.283Z,13.57
2023-03-31T14:13:10.717Z,13.64
2023-03-31T14:15:40.749Z,13.66
2023-03-31T14:18:08.544Z,13.75
2023-03-31T14:20:49.892Z,13.86
2023-03-31T14:23:34.752Z,13.79
2023-03-31T14:26:25.620Z,13.75
2023-03-31T14:29:03.444Z,13.78
2023-03-31T14:31:55.015Z,13.69
2023-03-31T14:34:44.800Z,13.64
2023-03-31T14:37:15.363Z,13.67
2023-03-31T14:39:45.913Z,13.66
2023-03-31T14:42:15.846Z,13.64
2023-03-31T14:44:46.914Z,13.56
2023-03-31T14:47:29.049Z,13.56
2023-03-31T14:50:07.696Z,13.56
2023-03-31T14:52:35.630Z,13.49
2023-03-31T14:55:02.054Z,13.42
2023-03-31T14:57:36.802Z,13.37
2023-03-31T15:00:08.251Z,12.96
2023-03-31T15:02:37.663Z,12.44
2023-03-31T15:05:07.526Z,11.84
2023-03-31T15:07:35.279Z,11.58
2023-03-31T15:10:03.221Z,11.44
2023-03-31T15:12:30.034Z,11.44
2023-03-31T15:15:07.138Z,11.42
2023-03-31T15:17:40.479Z,11.39
2023-03-31T15:20:37.377Z,11.35
2023-03-31T15:23:21.086Z,11.34
2023-03-31T15:25:47.616Z,11.36
2023-03-31T15:28:17.600Z,11.42
2023-03-31T15:30:47.614Z,11.46
2023-03-31T15:33:22.290Z,11.46
2023-03-31T15:35:49.131Z,11.49
2023-03-31T15:38:20.784Z,11.52
2023-03-31T15:40:54.648Z,11.50
2023-03-31T15:43:32.757Z,11.66
2023-03-31T15:46:00.772Z,11.65
2023-03-31T15:48:33.830Z,11.79
2023-03-31T15:51:21.671Z,11.89
2023-03-31T15:53:55.767Z,11.96
2023-03-31T15:56:36.064Z,11.95
2023-03-31T15:59:11.265Z,11.93
2023-03-31T16:01:43.993Z,11.93
2023-03-31T16:04:13.618Z,11.90
2023-03-31T16:06:52.579Z,11.89
2023-03-31T16:09:37.739Z,11.89
2023-03-31T16:12:10.902Z,11.83
2023-03-31T16:14:56.089Z,11.75
2023-03-31T16:17:29.073Z,11.73
2023-03-31T16:20:08.774Z,11.76
2023-03-31T16:22:41.599Z,11.78
2023-03-31T16:25:15.319Z,11.82
2023-03-31T16:27:46.602Z,11.82
2023-03-31T16:30:20.965Z,11.89
2023-03-31T16:33:03.112Z,11.93
2023-03-31T16:35:34.400Z,11.94
2023-03-31T16:38:01.812Z,11.90
2023-03-31T16:40:35.382Z,11.82
2023-03-31T16:43:16.804Z,11.77
2023-03-31T16:45:49.676Z,11.61
2023-03-31T16:48:17.811Z,11.57
2023-03-31T16:50:46.508Z,11.48
2023-03-31T16:53:14.842Z,11.36
2023-03-31T16:55:42.229Z,11.37
2023-03-31T16:58:08.854Z,11.18
2023-03-31T17:00:36.671Z,11.11
2023-03-31T17:03:04.863Z,11.14
2023-03-31T17:05:33.081Z,11.17
2023-03-31T17:08:00.214Z,11.16
2023-03-31T17:10:26.855Z,11.12
2023-03-31T17:12:53.237Z,11.05
2023-03-31T17:15:19.831Z,11.04
2023-03-31T17:17:47.663Z,11.06
2023-03-31T17:20:14.139Z,10.99
2023-03-31T17:22:40.552Z,11.03
2023-03-31T17:25:07.942Z,10.97
2023-03-31T17:27:35.059Z,10.89
2023-03-31T17:32:29.786Z,10.88
2023-03-31T17:34:56.460Z,10.76
2023-03-31T17:37:22.946Z,10.76
2023-03-31T17:39:49.373Z,10.68
2023-03-31T17:42:19.093Z,10.62
2023-03-31T17:44:46.327Z,10.51
2023-03-31T17:47:13.232Z,10.48
2023-03-31T17:49:39.581Z,10.50
2023-03-31T17:52:05.946Z,10.46
2023-03-31T17:54:32.450Z,10.43
2023-03-31T17:56:58.935Z,10.42
2023-03-31T17:59:25.337Z,10.41
2023-03-31T18:01:51.764Z,10.28
2023-03-31T18:04:18.274Z,10.31
2023-03-31T18:06:44.867Z,10.26
2023-03-31T18:09:11.662Z,10.23
2023-03-31T18:11:38.634Z,10.27
2023-03-31T18:14:05.049Z,10.23
2023-03-31T18:16:31.730Z,10.21
2023-03-31T18:18:58.217Z,10.16
2023-03-31T18:21:24.853Z,10.11
2023-03-31T18:23:52.607Z,10.02
2023-03-31T18:26:19.587Z,10.01
2023-03-31T18:28:45.950Z,10.05
2023-03-31T18:31:12.562Z,9.95
2023-03-31T18:33:40.083Z,9.93
2023-03-31T18:36:07.812Z,9.92
2023-03-31T18:38:36.708Z,10.06
2023-03-31T18:41:03.525Z,10.07
2023-03-31T18:43:31.931Z,10.07
2023-03-31T18:46:01.137Z,10.05
2023-03-31T18:48:27.652Z,10.09
2023-03-31T18:50:54.352Z,10.06
2023-03-31T18:53:22.365Z,10.09
2023-03-31T18:55:50.669Z,10.14
2023-03-31T18:58:17.350Z,10.15
2023-03-31T19:00:44.075Z,10.10
2023-03-31T19:03:11.006Z,10.09
2023-03-31T19:05:37.568Z,10.01
2023-03-31T19:08:04.481Z,10.05
2023-03-31T19:10:31.480Z,10.08
2023-03-31T19:12:58.494Z,10.08
2023-03-31T19:15:26.648Z,10.06
2023-03-31T19:17:53.166Z,10.12
2023-03-31T19:20:19.548Z,10.14
2023-03-31T19:22:49.274Z,10.17
2023-03-31T19:25:17.596Z,10.23
2023-03-31T19:27:45.058Z,10.27
2023-03-31T19:30:23.876Z,10.23
2023-03-31T19:32:50.712Z,10.29
2023-03-31T19:35:19.435Z,10.30
2023-03-31T19:37:46.727Z,10.33
2023-03-31T19:40:14.383Z,10.30
2023-03-31T19:42:41.995Z,10.29
2023-03-31T19:45:08.844Z,10.31
2023-03-31T19:47:35.414Z,10.29
2023-03-31T19:50:02.005Z,10.28
2023-03-31T19:52:28.871Z,10.21
2023-03-31T19:54:55.225Z,10.18
2023-03-31T19:57:21.700Z,10.14
2023-03-31T19:59:48.066Z,10.15
2023-03-31T20:02:14.587Z,10.01
2023-03-31T20:04:41.616Z,9.99
2023-03-31T20:07:08.628Z,9.98
2023-03-31T20:09:35.068Z,9.92
2023-03-31T20:12:01.449Z,9.92
2023-03-31T20:14:29.185Z,9.89
2023-03-31T20:16:55.995Z,9.89
2023-03-31T20:19:23.161Z,9.86
2023-03-31T20:21:54.116Z,9.82
2023-03-31T20:24:20.548Z,9.78
2023-03-31T20:26:47.556Z,9.77
2023-03-31T20:29:13.990Z,9.79
2023-03-31T20:31:41.657Z,9.75
2023-03-31T20:34:13.786Z,9.66
2023-03-31T20:36:42.153Z,9.56
2023-03-31T20:39:09.001Z,9.52
2023-03-31T20:41:40.056Z,9.48
2023-03-31T20:44:12.674Z,9.47
2023-03-31T20:46:41.489Z,9.45
2023-03-31T20:49:07.904Z,9.47
2023-03-31T20:51:37.358Z,9.42
2023-03-31T20:54:05.096Z,9.47
2023-03-31T20:56:33.183Z,9.46
2023-03-31T20:58:59.847Z,9.44
2023-03-31T21:01:28.436Z,9.41
2023-03-31T21:03:55.457Z,9.41
2023-03-31T21:06:21.932Z,9.47
2023-03-31T21:08:52.920Z,9.50
2023-03-31T21:11:19.327Z,9.58
2023-03-31T21:13:48.027Z,9.53
2023-03-31T21:16:15.880Z,9.56
2023-03-31T21:18:42.380Z,9.53
2023-03-31T21:21:12.260Z,9.52
2023-03-31T21:23:39.328Z,9.50
2023-03-31T21:26:07.612Z,9.50
2023-03-31T21:28:36.618Z,9.46
2023-03-31T21:31:06.790Z,9.46
2023-03-31T21:33:35.663Z,9.46
2023-03-31T21:36:02.199Z,9.46
2023-03-31T21:38:28.637Z,9.44
2023-03-31T21:40:58.149Z,9.47
2023-03-31T21:43:25.804Z,9.47
2023-03-31T21:45:53.318Z,9.48
2023-03-31T21:48:24.903Z,9.48
2023-03-31T21:50:52.573Z,9.45
2023-03-31T21:53:18.920Z,9.45
2023-03-31T21:55:45.274Z,9.46
2023-03-31T21:58:11.923Z,9.50
2023-03-31T22:00:38.297Z,9.47
2023-03-31T22:03:22.371Z,9.48
2023-03-31T22:05:51.509Z,9.52
2023-03-31T22:08:17.876Z,9.52
2023-03-31T22:10:48.397Z,9.54
2023-03-31T22:13:14.744Z,9.50
2023-03-31T22:15:43.721Z,9.51
2023-03-31T22:18:11.420Z,9.50
2023-03-31T22:20:38.493Z,9.50
2023-03-31T22:23:05.042Z,9.52
2023-03-31T22:25:31.905Z,9.53
2023-03-31T22:27:58.952Z,9.55
2023-03-31T22:30:25.415Z,9.58
2023-03-31T22:32:52.177Z,9.53
2023-03-31T22:35:18.589Z,9.56
2023-03-31T22:37:44.972Z,9.54
2023-03-31T22:40:11.465Z,9.50
2023-03-31T22:42:37.842Z,9.46
2023-03-31T22:45:04.763Z,9.45
2023-03-31T22:47:31.264Z,9.43
2023-03-31T22:49:57.638Z,9.35
2023-03-31T22:52:24.064Z,9.36
2023-03-31T22:54:50.863Z,9.37
2023-03-31T22:57:17.541Z,9.25
2023-03-31T22:59:43.917Z,9.35
2023-03-31T23:02:10.527Z,9.28
2023-03-31T23:04:36.962Z,9.31
2023-03-31T23:07:03.364Z,9.26
2023-03-31T23:09:29.772Z,9.25
2023-03-31T23:11:56.142Z,9.25
2023-03-31T23:14:22.739Z,9.31
2023-03-31T23:16:49.163Z,9.19
2023-03-31T23:19:15.614Z,9.25
2023-03-31T23:21:41.965Z,9.24
2023-03-31T23:24:09.530Z,9.24
2023-03-31T23:26:36.006Z,9.25
2023-03-31T23:29:02.573Z,9.26
2023-03-31T23:31:31.710Z,9.32
2023-03-31T23:33:59.499Z,9.26
2023-03-31T23:36:26.576Z,9.36
2023-03-31T23:38:55.455Z,9.35
2023-03-31T23:41:26.036Z,9.23
2023-03-31T23:43:53.522Z,9.22
2023-03-31T23:46:20.022Z,9.29
2023-03-31T23:48:46.378Z,9.27
2023-03-31T23:51:13.309Z,9.29
2023-03-31T23:53:39.736Z,9.27
2023-03-31T23:56:08.863Z,9.31
2023-03-31T23:58:35.697Z,9.22
